createdAt,value
2018-01-17T00:01:41.226Z,988.38
2018-01-17T00:02:48.265Z,988.36
2018-01-17T00:03:51.332Z,988.30
2018-01-17T00:06:31.811Z,988.28
2018-01-17T00:07:38.890Z,988.31
2018-01-17T00:08:38.874Z,988.32
2018-01-17T00:11:21.037Z,988.33
2018-01-17T00:14:14.939Z,988.27
2018-01-17T00:15:23.046Z,988.34
2018-01-17T00:18:05.034Z,988.33
2018-01-17T00:20:55.161Z,988.30
2018-01-17T00:21:54.964Z,988.23
2018-01-17T00:22:54.863Z,988.33
2018-01-17T00:23:54.775Z,988.24
2018-01-17T00:24:54.692Z,988.21
2018-01-17T00:25:54.733Z,988.27
2018-01-17T00:28:19.046Z,988.30
2018-01-17T00:29:18.945Z,988.24
2018-01-17T00:30:18.873Z,988.22
2018-01-17T00:34:52.937Z,988.04
2018-01-17T00:35:52.875Z,988.03
2018-01-17T00:36:52.789Z,988.03
2018-01-17T00:37:52.712Z,987.93
2018-01-17T00:38:52.621Z,988.03
2018-01-17T00:39:52.582Z,987.95
2018-01-17T00:40:52.476Z,987.96
2018-01-17T00:41:52.396Z,987.90
2018-01-17T00:42:52.326Z,987.93
2018-01-17T00:43:52.200Z,987.94
2018-01-17T00:44:52.139Z,987.97
2018-01-17T00:45:52.059Z,988.01
2018-01-17T00:46:51.958Z,987.99
2018-01-17T00:47:51.903Z,987.99
2018-01-17T00:48:51.789Z,988.00
2018-01-17T00:49:51.746Z,988.11
2018-01-17T00:50:51.761Z,988.10
2018-01-17T00:51:51.568Z,988.14
2018-01-17T00:52:51.467Z,988.16
2018-01-17T00:53:51.391Z,988.20
2018-01-17T00:54:51.311Z,988.22
2018-01-17T00:55:51.223Z,988.08
2018-01-17T00:56:51.213Z,988.11
2018-01-17T00:57:51.088Z,988.09
2018-01-17T00:58:51.035Z,988.17
2018-01-17T00:59:50.908Z,988.24
2018-01-17T01:00:50.812Z,988.19
2018-01-17T01:01:50.747Z,988.16
2018-01-17T01:02:50.668Z,988.19
2018-01-17T01:03:50.598Z,988.14
2018-01-17T01:04:50.540Z,988.10
2018-01-17T01:05:50.414Z,988.16
2018-01-17T01:06:50.350Z,988.16
2018-01-17T01:07:50.263Z,988.12
2018-01-17T01:08:50.164Z,988.20
2018-01-17T01:09:50.079Z,988.22
2018-01-17T01:10:50.008Z,988.23
2018-01-17T01:11:49.933Z,988.17
2018-01-17T01:12:49.861Z,988.17
2018-01-17T01:13:50.149Z,988.12
2018-01-17T01:14:49.675Z,988.12
2018-01-17T01:15:49.605Z,988.07
2018-01-17T01:16:49.504Z,988.06
2018-01-17T01:17:49.430Z,988.08
2018-01-17T01:18:49.362Z,988.09
2018-01-17T01:19:49.275Z,988.07
2018-01-17T01:20:49.253Z,988.23
2018-01-17T01:21:49.109Z,988.11
2018-01-17T01:22:49.021Z,988.14
2018-01-17T01:23:48.970Z,988.21
2018-01-17T01:24:48.869Z,988.14
2018-01-17T01:25:48.783Z,988.21
2018-01-17T01:26:48.711Z,988.15
2018-01-17T01:27:48.651Z,988.25
2018-01-17T01:28:48.568Z,988.20
2018-01-17T01:29:48.487Z,988.19
2018-01-17T01:30:48.417Z,988.20
2018-01-17T01:31:48.292Z,988.23
2018-01-17T01:32:51.127Z,988.24
2018-01-17T01:33:48.156Z,988.23
2018-01-17T01:34:48.144Z,988.22
2018-01-17T01:35:47.951Z,988.16
2018-01-17T01:36:56.689Z,988.26
2018-01-17T01:40:00.724Z,988.30
2018-01-17T01:41:10.217Z,988.32
2018-01-17T01:43:53.683Z,988.18
2018-01-17T01:46:43.211Z,988.34
2018-01-17T01:47:51.892Z,988.38
2018-01-17T01:48:51.908Z,988.34
2018-01-17T01:49:53.061Z,988.36
2018-01-17T01:52:33.898Z,988.35
2018-01-17T01:53:33.780Z,988.32
2018-01-17T01:54:33.736Z,988.28
2018-01-17T01:55:33.642Z,988.41
2018-01-17T01:56:33.538Z,988.44
2018-01-17T01:57:33.450Z,988.38
2018-01-17T01:58:33.370Z,988.39
2018-01-17T01:59:33.287Z,988.47
2018-01-17T02:00:33.208Z,988.43
2018-01-17T02:01:33.144Z,988.35
2018-01-17T02:02:33.055Z,988.42
2018-01-17T02:03:32.965Z,988.41
2018-01-17T02:04:32.875Z,988.43
2018-01-17T02:05:32.811Z,988.39
2018-01-17T02:06:32.814Z,988.38
2018-01-17T02:07:32.632Z,988.37
2018-01-17T02:08:32.555Z,988.35
2018-01-17T02:09:32.490Z,988.42
2018-01-17T02:12:14.406Z,988.55
2018-01-17T02:13:14.281Z,988.61
2018-01-17T02:14:14.218Z,988.77
2018-01-17T02:15:14.124Z,988.81
2018-01-17T02:16:14.049Z,988.83
2018-01-17T02:17:13.985Z,988.95
2018-01-17T02:19:38.364Z,988.83
2018-01-17T02:20:38.308Z,988.80
2018-01-17T02:21:38.226Z,988.81
2018-01-17T02:22:38.133Z,988.73
2018-01-17T02:23:40.027Z,988.73
2018-01-17T02:24:37.985Z,988.80
2018-01-17T02:25:37.871Z,988.88
2018-01-17T02:28:02.386Z,988.80
2018-01-17T02:29:02.282Z,988.86
2018-01-17T02:30:02.218Z,988.84
2018-01-17T02:31:02.123Z,988.81
2018-01-17T02:32:02.056Z,988.78
2018-01-17T02:33:01.983Z,988.72
2018-01-17T02:35:43.868Z,988.74
2018-01-17T02:36:43.790Z,988.76
2018-01-17T02:37:43.727Z,988.64
2018-01-17T02:38:43.656Z,988.73
2018-01-17T02:41:25.876Z,988.79
2018-01-17T02:42:25.780Z,988.90
2018-01-17T02:43:25.719Z,988.96
2018-01-17T02:44:25.624Z,989.00
2018-01-17T02:45:25.551Z,989.01
2018-01-17T02:46:25.454Z,989.06
2018-01-17T02:47:25.377Z,989.09
2018-01-17T02:48:25.321Z,989.03
2018-01-17T02:49:25.270Z,989.03
2018-01-17T02:50:25.135Z,989.01
2018-01-17T02:51:25.054Z,989.03
2018-01-17T02:52:24.970Z,989.05
2018-01-17T02:53:24.935Z,989.08
2018-01-17T02:54:24.802Z,989.09
2018-01-17T02:55:24.711Z,989.14
2018-01-17T02:56:24.649Z,989.16
2018-01-17T02:57:24.567Z,989.23
2018-01-17T02:58:24.500Z,989.17
2018-01-17T02:59:24.389Z,989.17
2018-01-17T03:00:24.308Z,989.17
2018-01-17T03:01:24.241Z,989.19
2018-01-17T03:02:24.143Z,989.16
2018-01-17T03:03:24.082Z,989.08
2018-01-17T03:04:23.977Z,989.01
2018-01-17T03:05:23.918Z,989.03
2018-01-17T03:06:23.823Z,989.11
2018-01-17T03:07:23.732Z,989.09
2018-01-17T03:08:23.698Z,989.15
2018-01-17T03:09:23.603Z,989.20
2018-01-17T03:10:23.500Z,989.17
2018-01-17T03:11:23.404Z,989.18
2018-01-17T03:12:23.314Z,989.22
2018-01-17T03:13:23.236Z,989.26
2018-01-17T03:14:23.193Z,989.25
2018-01-17T03:17:05.374Z,989.23
2018-01-17T03:18:05.298Z,989.14
2018-01-17T03:19:05.515Z,989.16
2018-01-17T03:20:05.145Z,989.29
2018-01-17T03:21:05.047Z,989.19
2018-01-17T03:22:04.964Z,989.19
2018-01-17T03:23:04.881Z,989.22
2018-01-17T03:24:04.882Z,989.30
2018-01-17T03:25:04.727Z,989.20
2018-01-17T03:26:04.631Z,989.17
2018-01-17T03:27:04.564Z,989.23
2018-01-17T03:28:04.477Z,989.26
2018-01-17T03:29:04.392Z,989.29
2018-01-17T03:30:04.303Z,989.40
2018-01-17T03:31:04.261Z,989.49
2018-01-17T03:32:04.161Z,989.45
2018-01-17T03:34:50.832Z,989.39
2018-01-17T03:35:46.290Z,989.43
2018-01-17T03:36:46.232Z,989.47
2018-01-17T03:37:46.120Z,989.56
2018-01-17T03:38:46.042Z,989.38
2018-01-17T03:39:45.983Z,989.35
2018-01-17T03:40:45.905Z,989.38
2018-01-17T03:41:45.803Z,989.44
2018-01-17T03:42:45.710Z,989.44
2018-01-17T03:43:45.644Z,989.47
2018-01-17T03:44:45.543Z,989.47
2018-01-17T03:45:45.478Z,989.45
2018-01-17T03:46:45.415Z,989.49
2018-01-17T03:47:45.328Z,989.50
2018-01-17T03:48:45.227Z,989.52
2018-01-17T03:52:51.890Z,989.54
2018-01-17T03:53:51.802Z,989.61
2018-01-17T03:54:51.701Z,989.58
2018-01-17T03:55:51.640Z,989.55
2018-01-17T03:56:51.565Z,989.55
2018-01-17T03:57:51.484Z,989.60
2018-01-17T03:58:51.380Z,989.61
2018-01-17T03:59:51.303Z,989.65
2018-01-17T04:00:51.219Z,989.66
2018-01-17T04:01:51.140Z,989.66
2018-01-17T04:02:51.064Z,989.70
2018-01-17T04:03:50.971Z,989.65
2018-01-17T04:04:51.000Z,989.77
2018-01-17T04:05:50.828Z,989.73
2018-01-17T04:06:50.723Z,989.82
2018-01-17T04:07:50.683Z,989.89
2018-01-17T04:08:50.566Z,989.77
2018-01-17T04:09:50.479Z,989.83
2018-01-17T04:10:52.388Z,989.81
2018-01-17T04:11:50.307Z,989.81
2018-01-17T04:12:50.249Z,989.80
2018-01-17T04:13:50.167Z,989.77
2018-01-17T04:14:50.063Z,989.77
2018-01-17T04:15:49.979Z,989.83
2018-01-17T04:16:49.899Z,989.81
2018-01-17T04:17:49.819Z,989.73
2018-01-17T04:18:49.750Z,989.87
2018-01-17T04:19:49.657Z,989.84
2018-01-17T04:20:49.572Z,989.85
2018-01-17T04:21:49.486Z,989.78
2018-01-17T04:22:49.416Z,989.84
2018-01-17T04:23:49.335Z,989.83
2018-01-17T04:24:49.236Z,989.85
2018-01-17T04:25:49.165Z,989.83
2018-01-17T04:28:31.401Z,989.79
2018-01-17T04:29:31.296Z,989.85
2018-01-17T04:30:31.207Z,989.82
2018-01-17T04:31:31.136Z,989.87
2018-01-17T04:32:31.050Z,989.85
2018-01-17T04:33:30.967Z,989.93
2018-01-17T04:34:30.903Z,989.97
2018-01-17T04:35:30.813Z,989.93
2018-01-17T04:36:30.732Z,989.99
2018-01-17T04:37:30.648Z,989.92
2018-01-17T04:38:30.552Z,989.95
2018-01-17T04:39:30.471Z,989.99
2018-01-17T04:40:30.442Z,990.04
2018-01-17T04:41:30.304Z,990.00
2018-01-17T04:42:30.232Z,990.06
2018-01-17T04:43:30.160Z,990.02
2018-01-17T04:44:31.998Z,990.14
2018-01-17T04:45:29.994Z,990.22
2018-01-17T04:46:29.899Z,990.24
2018-01-17T04:47:29.827Z,990.34
2018-01-17T04:48:29.731Z,990.16
2018-01-17T04:49:29.653Z,990.22
2018-01-17T04:50:29.612Z,990.14
2018-01-17T04:51:29.475Z,990.18
2018-01-17T04:52:29.404Z,990.21
2018-01-17T04:53:29.327Z,990.15
2018-01-17T04:54:29.264Z,990.29
2018-01-17T04:55:29.156Z,990.27
2018-01-17T04:56:29.084Z,990.29
2018-01-17T04:57:28.976Z,990.40
2018-01-17T04:58:28.906Z,990.37
2018-01-17T04:59:28.899Z,990.37
2018-01-17T05:00:30.736Z,990.39
2018-01-17T05:01:28.684Z,990.39
2018-01-17T05:02:28.570Z,990.40
2018-01-17T05:03:28.493Z,990.40
2018-01-17T05:04:28.427Z,990.38
2018-01-17T05:05:28.338Z,990.47
2018-01-17T05:06:28.240Z,990.49
2018-01-17T05:07:28.162Z,990.46
2018-01-17T05:08:28.085Z,990.55
2018-01-17T05:09:28.034Z,990.51
2018-01-17T05:10:27.919Z,990.51
2018-01-17T05:11:27.864Z,990.59
2018-01-17T05:12:27.779Z,990.57
2018-01-17T05:13:28.448Z,990.65
2018-01-17T05:14:27.597Z,990.77
2018-01-17T05:15:27.501Z,990.75
2018-01-17T05:16:27.426Z,990.80
2018-01-17T05:17:27.362Z,990.87
2018-01-17T05:18:27.259Z,990.83
2018-01-17T05:19:29.190Z,990.89
2018-01-17T05:20:27.079Z,990.95
2018-01-17T05:21:27.044Z,990.98
2018-01-17T05:22:26.931Z,990.93
2018-01-17T05:23:26.848Z,991.01
2018-01-17T05:24:28.769Z,991.06
2018-01-17T05:27:12.897Z,991.07
2018-01-17T05:29:58.892Z,991.18
2018-01-17T05:30:58.803Z,991.21
2018-01-17T05:31:58.718Z,991.18
2018-01-17T05:32:58.656Z,991.37
2018-01-17T05:33:58.590Z,991.24
2018-01-17T05:36:23.911Z,991.36
2018-01-17T05:37:23.802Z,991.34
2018-01-17T05:38:23.742Z,991.46
2018-01-17T05:39:23.669Z,991.36
2018-01-17T05:40:23.580Z,991.37
2018-01-17T05:41:23.497Z,991.36
2018-01-17T05:42:23.421Z,991.38
2018-01-17T05:43:23.358Z,991.38
2018-01-17T05:44:23.248Z,991.38
2018-01-17T05:45:23.154Z,991.40
2018-01-17T05:46:23.078Z,991.41
2018-01-17T05:47:22.988Z,991.41
2018-01-17T05:48:22.912Z,991.46
2018-01-17T05:49:25.505Z,991.48
2018-01-17T05:50:22.740Z,991.54
2018-01-17T05:51:22.665Z,991.49
2018-01-17T05:52:22.646Z,991.51
2018-01-17T05:53:22.544Z,991.53
2018-01-17T05:54:22.430Z,991.51
2018-01-17T05:55:22.317Z,991.46
2018-01-17T05:56:22.251Z,991.43
2018-01-17T05:57:22.399Z,991.46
2018-01-17T05:58:22.094Z,991.49
2018-01-17T05:59:22.002Z,991.47
2018-01-17T06:00:21.924Z,991.49
2018-01-17T06:01:21.844Z,991.54
2018-01-17T06:02:21.765Z,991.54
2018-01-17T06:03:21.654Z,991.62
2018-01-17T06:04:21.578Z,991.66
2018-01-17T06:05:21.570Z,991.71
2018-01-17T06:06:21.429Z,991.67
2018-01-17T06:07:21.339Z,991.66
2018-01-17T06:08:21.267Z,991.70
2018-01-17T06:09:21.181Z,991.73
2018-01-17T06:10:21.532Z,991.75
2018-01-17T06:11:21.008Z,991.72
2018-01-17T06:12:20.921Z,991.77
2018-01-17T06:13:20.860Z,991.75
2018-01-17T06:14:20.771Z,991.79
2018-01-17T06:15:20.773Z,991.89
2018-01-17T06:16:29.052Z,991.83
2018-01-17T06:19:14.967Z,991.89
2018-01-17T06:20:23.593Z,991.88
2018-01-17T06:21:25.151Z,991.92
2018-01-17T06:22:23.694Z,991.94
2018-01-17T06:25:08.130Z,991.95
2018-01-17T06:26:16.259Z,992.00
2018-01-17T06:27:16.787Z,992.09
2018-01-17T06:28:07.859Z,992.11
2018-01-17T06:29:16.826Z,992.16
2018-01-17T06:30:16.368Z,992.14
2018-01-17T06:31:07.888Z,992.16
2018-01-17T06:32:07.532Z,992.15
2018-01-17T06:33:07.439Z,992.17
2018-01-17T06:35:49.301Z,992.17
2018-01-17T06:36:49.207Z,992.23
2018-01-17T06:40:15.262Z,992.35
2018-01-17T06:41:15.178Z,992.41
2018-01-17T06:42:15.101Z,992.38
2018-01-17T06:43:15.014Z,992.50
2018-01-17T06:44:14.915Z,992.44
2018-01-17T06:45:14.833Z,992.46
2018-01-17T06:46:14.777Z,992.51
2018-01-17T06:47:14.689Z,992.56
2018-01-17T06:48:14.583Z,992.53
2018-01-17T06:50:56.767Z,992.59
2018-01-17T06:51:56.688Z,992.63
2018-01-17T06:52:58.633Z,992.57
2018-01-17T07:19:18.255Z,993.32
2018-01-17T07:20:20.053Z,993.25
2018-01-17T07:21:18.002Z,993.37
2018-01-17T07:22:18.822Z,993.38
2018-01-17T07:25:11.269Z,993.29
2018-01-17T07:26:11.184Z,993.37
2018-01-17T07:27:15.096Z,993.44
2018-01-17T07:28:13.019Z,993.53
2018-01-17T07:29:13.840Z,993.53
2018-01-17T07:30:12.394Z,993.53
2018-01-17T07:31:10.789Z,993.55
2018-01-17T07:32:10.727Z,993.50
2018-01-17T07:33:10.614Z,993.52
2018-01-17T07:34:10.525Z,993.59
2018-01-17T07:35:10.506Z,993.60
2018-01-17T07:36:10.383Z,993.61
2018-01-17T07:38:52.261Z,993.79
2018-01-17T07:39:53.213Z,993.77
2018-01-17T07:40:52.141Z,993.81
2018-01-17T07:45:16.267Z,993.89
2018-01-17T07:47:58.300Z,994.00
2018-01-17T07:49:00.180Z,994.00
2018-01-17T07:49:58.118Z,994.05
2018-01-17T07:50:58.052Z,994.04
2018-01-17T07:51:57.934Z,994.09
2018-01-17T07:54:40.262Z,994.20
2018-01-17T07:55:40.316Z,994.17
2018-01-17T07:56:40.095Z,994.20
2018-01-17T07:57:40.030Z,994.23
2018-01-17T07:58:39.963Z,994.28
2018-01-17T07:59:39.859Z,994.32
2018-01-17T08:02:21.771Z,994.42
2018-01-17T08:06:45.780Z,994.52
2018-01-17T08:07:45.695Z,994.55
2018-01-17T08:08:45.619Z,994.60
2018-01-17T08:11:27.792Z,994.54
2018-01-17T08:12:27.801Z,994.60
2018-01-17T08:13:31.614Z,994.64
2018-01-17T08:14:27.518Z,994.72
2018-01-17T08:17:11.740Z,994.70
2018-01-17T08:19:51.784Z,994.74
2018-01-17T08:20:51.815Z,994.77
2018-01-17T08:21:52.389Z,994.68
2018-01-17T08:22:53.073Z,994.75
2018-01-17T08:23:51.840Z,994.77
2018-01-17T08:24:52.536Z,994.84
2018-01-17T08:25:51.341Z,994.76
2018-01-17T08:26:51.492Z,994.83
2018-01-17T08:27:51.328Z,994.87
2018-01-17T08:28:51.225Z,994.81
2018-01-17T08:31:33.301Z,995.07
2018-01-17T08:34:21.565Z,995.07
2018-01-17T08:35:23.662Z,995.08
2018-01-17T08:36:19.161Z,995.08
2018-01-17T08:37:19.400Z,995.12
2018-01-17T08:39:27.628Z,995.20
2018-01-17T08:39:28.923Z,995.25
2018-01-17T08:40:30.332Z,995.27
2018-01-17T09:02:39.010Z,995.56
2018-01-17T09:03:38.931Z,995.49
2018-01-17T09:04:38.841Z,995.56
2018-01-17T09:10:57.267Z,995.76
2018-01-17T09:13:39.306Z,995.79
2018-01-17T09:16:21.276Z,995.76
2018-01-17T09:17:21.242Z,995.89
2018-01-17T09:22:37.292Z,995.87
2018-01-17T09:23:37.205Z,995.83
2018-01-17T09:24:37.141Z,995.82
2018-01-17T09:29:09.327Z,996.05
2018-01-17T09:30:09.204Z,996.01
2018-01-17T09:31:09.167Z,996.07
2018-01-17T09:33:51.314Z,996.08
2018-01-17T09:34:55.207Z,996.08
2018-01-17T09:35:51.159Z,996.09
2018-01-17T09:36:51.032Z,996.05
2018-01-17T09:37:51.061Z,996.06
2018-01-17T09:40:36.835Z,996.15
2018-01-17T09:41:36.694Z,996.12
2018-01-17T09:44:18.824Z,996.16
2018-01-17T09:47:04.782Z,996.16
2018-01-17T09:48:04.708Z,996.24
2018-01-17T09:50:48.390Z,996.36
2018-01-17T09:51:46.701Z,996.24
2018-01-17T09:54:32.814Z,996.28
2018-01-17T09:55:34.689Z,996.30
2018-01-17T09:56:32.619Z,996.43
2018-01-17T09:57:34.560Z,996.35
2018-01-17T09:58:32.503Z,996.54
2018-01-17T09:59:32.386Z,996.39
2018-01-17T10:00:32.317Z,996.54
2018-01-17T10:01:32.191Z,996.58
2018-01-17T10:05:56.292Z,996.42
2018-01-17T10:10:35.844Z,996.61
2018-01-17T10:11:39.691Z,996.59
2018-01-17T10:12:35.621Z,996.51
2018-01-17T10:13:35.527Z,996.53
2018-01-17T10:14:35.445Z,996.67
2018-01-17T10:15:35.415Z,996.67
2018-01-17T10:16:35.302Z,996.65
2018-01-17T10:21:03.275Z,996.68
2018-01-17T10:22:03.220Z,996.71
2018-01-17T10:24:45.293Z,996.82
2018-01-17T10:25:45.250Z,996.73
2018-01-17T10:26:45.138Z,996.76
2018-01-17T10:29:39.288Z,996.83
2018-01-17T10:30:31.250Z,996.96
2018-01-17T10:31:31.149Z,996.76
2018-01-17T10:32:31.048Z,996.71
2018-01-17T10:33:30.952Z,996.90
2018-01-17T10:34:32.867Z,996.91
2018-01-17T10:35:30.822Z,996.65
2018-01-17T10:36:30.713Z,996.86
2018-01-17T10:37:30.653Z,996.89
2018-01-17T10:38:30.579Z,996.94
2018-01-17T10:41:16.778Z,997.00
2018-01-17T10:42:12.710Z,996.92
2018-01-17T10:44:39.795Z,996.94
2018-01-17T10:45:39.747Z,996.93
2018-01-17T10:46:39.627Z,996.97
2018-01-17T10:47:39.588Z,997.02
2018-01-17T10:48:39.521Z,996.97
2018-01-17T10:49:39.381Z,996.98
2018-01-17T10:50:39.863Z,996.96
2018-01-17T10:53:21.379Z,997.04
2018-01-17T10:54:22.195Z,997.07
2018-01-17T10:58:45.915Z,996.97
2018-01-17T10:59:54.931Z,997.01
2018-01-17T11:00:54.964Z,997.00
2018-01-17T11:01:52.996Z,997.08
2018-01-17T11:08:00.457Z,997.06
2018-01-17T11:09:08.626Z,997.11
2018-01-17T11:10:00.273Z,997.07
2018-01-17T11:11:00.205Z,997.08
2018-01-17T11:12:00.127Z,997.15
2018-01-17T11:13:04.007Z,997.10
2018-01-17T11:13:59.975Z,997.09
2018-01-17T11:14:59.862Z,997.23
2018-01-17T11:15:59.779Z,997.04
2018-01-17T11:18:45.988Z,997.14
2018-01-17T11:19:45.905Z,997.09
2018-01-17T11:20:45.807Z,997.17
2018-01-17T11:23:27.978Z,997.13
2018-01-17T11:24:27.903Z,997.17
2018-01-17T11:25:28.114Z,997.07
2018-01-17T11:26:29.744Z,997.10
2018-01-17T11:27:27.666Z,997.12
2018-01-17T11:28:28.623Z,997.27
2018-01-17T11:34:40.571Z,997.20
2018-01-17T11:35:38.434Z,997.26
2018-01-17T11:36:38.315Z,997.18
2018-01-17T11:37:38.246Z,997.28
2018-01-17T11:38:38.138Z,997.15
2018-01-17T11:39:42.060Z,997.25
2018-01-17T11:40:37.978Z,997.19
2018-01-17T11:41:37.996Z,997.38
2018-01-17T11:42:37.817Z,997.32
2018-01-17T11:43:37.741Z,997.30
2018-01-17T11:44:37.668Z,997.30
2018-01-17T11:47:19.481Z,997.39
2018-01-17T11:55:20.475Z,997.43
2018-01-17T11:56:20.408Z,997.53
2018-01-17T11:59:02.581Z,997.52
2018-01-17T12:01:44.505Z,997.42
2018-01-17T12:06:24.025Z,997.58
2018-01-17T12:09:06.004Z,997.60
2018-01-17T12:10:06.616Z,997.59
2018-01-17T12:12:21.062Z,997.54
2018-01-17T12:12:21.603Z,997.74
2018-01-17T12:13:21.493Z,997.77
2018-01-17T12:14:21.378Z,997.63
2018-01-17T12:15:21.288Z,997.61
2018-01-17T12:16:21.261Z,997.60
2018-01-17T12:19:03.497Z,997.60
2018-01-17T12:20:03.427Z,997.61
2018-01-17T12:22:45.489Z,997.60
2018-01-17T12:25:27.548Z,997.56
2018-01-17T12:28:09.510Z,997.70
2018-01-17T12:29:10.090Z,997.70
2018-01-17T12:30:11.307Z,997.63
2018-01-17T12:32:51.495Z,997.71
2018-01-17T12:35:33.471Z,997.62
2018-01-17T12:36:33.398Z,997.70
2018-01-17T12:37:33.333Z,997.70
2018-01-17T12:40:15.509Z,997.78
2018-01-17T12:41:15.442Z,997.83
2018-01-17T12:42:15.335Z,997.85
2018-01-17T12:43:17.255Z,997.83
2018-01-17T12:44:15.152Z,998.03
2018-01-17T12:45:19.059Z,997.87
2018-01-17T12:46:14.996Z,997.97
2018-01-17T12:47:14.929Z,997.96
2018-01-17T12:48:14.831Z,997.87
2018-01-17T12:49:14.761Z,997.92
2018-01-17T12:51:56.994Z,997.96
2018-01-17T12:52:56.895Z,997.89
2018-01-17T12:53:56.824Z,997.97
2018-01-17T12:54:56.738Z,997.83
2018-01-17T12:55:58.660Z,997.91
2018-01-17T12:58:39.001Z,997.83
2018-01-17T12:59:38.913Z,997.68
2018-01-17T13:00:38.926Z,997.82
2018-01-17T13:01:42.747Z,997.88
2018-01-17T13:04:32.496Z,997.77
2018-01-17T13:07:14.492Z,997.80
2018-01-17T13:08:17.557Z,997.90
2018-01-17T13:09:14.355Z,997.96
2018-01-17T13:10:14.259Z,997.82
2018-01-17T13:11:14.159Z,997.86
2018-01-17T13:12:14.079Z,997.88
2018-01-17T13:13:14.020Z,997.76
2018-01-17T13:15:55.996Z,997.91
2018-01-17T13:18:38.017Z,997.88
2018-01-17T13:21:20.124Z,997.85
2018-01-17T13:22:20.552Z,997.94
2018-01-17T13:23:19.831Z,997.91
2018-01-17T13:24:23.802Z,997.97
2018-01-17T13:25:19.675Z,998.03
2018-01-17T13:26:19.582Z,997.97
2018-01-17T13:27:19.501Z,998.04
2018-01-17T13:31:05.413Z,997.99
2018-01-17T13:32:05.349Z,998.01
2018-01-17T13:33:05.253Z,998.16
2018-01-17T13:34:05.162Z,997.97
2018-01-17T13:35:05.096Z,997.95
2018-01-17T13:36:05.575Z,998.16
2018-01-17T13:37:04.982Z,998.10
2018-01-17T13:38:04.842Z,998.21
2018-01-17T13:39:04.766Z,998.21
2018-01-17T13:40:04.688Z,998.20
2018-01-17T13:41:04.598Z,998.32
2018-01-17T13:43:46.482Z,998.33
2018-01-17T13:44:47.054Z,998.41
2018-01-17T13:47:28.503Z,998.37
2018-01-17T13:48:28.417Z,998.38
2018-01-17T13:52:52.600Z,998.25
2018-01-17T13:53:52.405Z,998.27
2018-01-17T13:54:52.351Z,998.35
2018-01-17T13:57:36.123Z,998.28
2018-01-17T13:58:34.434Z,998.21
2018-01-17T13:59:38.346Z,998.21
2018-01-17T14:02:16.499Z,998.38
2018-01-17T14:03:16.437Z,998.43
2018-01-17T14:04:16.340Z,998.39
2018-01-17T14:05:16.373Z,998.49
2018-01-17T14:06:18.250Z,998.37
2018-01-17T14:08:58.090Z,998.55
2018-01-17T14:09:59.985Z,998.60
2018-01-17T14:10:59.815Z,998.82
2018-01-17T14:11:59.773Z,998.91
2018-01-17T14:14:40.066Z,998.95
2018-01-17T14:15:39.913Z,999.02
2018-01-17T14:16:39.847Z,999.10
2018-01-17T14:17:39.775Z,998.95
2018-01-17T14:18:39.688Z,998.95
2018-01-17T14:19:39.628Z,998.93
2018-01-17T14:20:39.521Z,999.00
2018-01-17T14:23:21.517Z,998.97
2018-01-17T14:24:21.442Z,999.04
2018-01-17T14:25:21.408Z,999.16
2018-01-17T14:26:21.249Z,999.16
2018-01-17T14:29:03.595Z,999.26
2018-01-17T14:30:03.403Z,999.15
2018-01-17T14:31:03.343Z,999.27
2018-01-17T14:32:03.309Z,999.21
2018-01-17T14:34:49.538Z,999.29
2018-01-17T14:40:58.134Z,999.56
2018-01-17T14:41:55.408Z,999.51
2018-01-17T14:42:55.366Z,999.52
2018-01-17T14:47:06.009Z,999.53
2018-01-17T14:48:05.913Z,999.58
2018-01-17T14:50:48.033Z,999.67
2018-01-17T14:53:33.983Z,999.70
2018-01-17T14:56:16.014Z,999.75
2018-01-17T14:58:58.010Z,999.86
2018-01-17T14:59:57.943Z,999.81
2018-01-17T15:02:44.045Z,1000.13
2018-01-17T15:03:43.940Z,999.95
2018-01-17T15:04:43.852Z,1000.15
2018-01-17T15:07:30.043Z,1000.03
2018-01-17T15:10:12.017Z,1000.10
2018-01-17T15:12:54.068Z,1000.11
2018-01-17T15:13:53.966Z,1000.13
2018-01-17T15:14:53.834Z,1000.13
2018-01-17T15:15:53.763Z,1000.29
2018-01-17T15:16:53.678Z,1000.32
2018-01-17T15:19:36.006Z,1000.28
2018-01-17T15:20:35.955Z,1000.42
2018-01-17T15:21:35.828Z,1000.45
2018-01-17T15:24:18.000Z,1000.37
2018-01-17T15:25:17.907Z,1000.41
2018-01-17T15:28:00.022Z,1000.40
2018-01-17T15:28:59.941Z,1000.42
2018-01-17T15:30:03.570Z,1000.46
2018-01-17T15:30:59.779Z,1000.51
2018-01-17T15:33:43.613Z,1000.60
2018-01-17T15:34:50.656Z,1000.66
2018-01-17T15:37:32.188Z,1000.67
2018-01-17T15:43:58.634Z,1000.87
2018-01-17T15:45:07.232Z,1000.83
2018-01-17T15:47:54.672Z,1000.87
2018-01-17T15:50:35.169Z,1000.99
2018-01-17T15:51:35.094Z,1001.00
2018-01-17T15:52:35.016Z,1000.98
2018-01-17T15:53:34.950Z,1001.05
2018-01-17T15:56:21.153Z,1001.11
2018-01-17T15:59:03.190Z,1001.13
2018-01-17T16:00:03.096Z,1001.12
2018-01-17T16:01:03.051Z,1001.24
2018-01-17T16:02:04.126Z,1001.28
2018-01-17T16:03:02.911Z,1001.28
2018-01-17T16:04:02.757Z,1001.28
2018-01-17T16:05:02.795Z,1001.31
2018-01-17T16:06:02.702Z,1001.29
2018-01-17T16:08:48.673Z,1001.37
2018-01-17T16:13:13.171Z,1001.42
2018-01-17T16:14:13.101Z,1001.55
2018-01-17T16:18:37.674Z,1001.45
2018-01-17T16:19:37.604Z,1001.55
2018-01-17T16:20:43.939Z,1001.55
2018-01-17T16:21:37.434Z,1001.53
2018-01-17T16:22:37.337Z,1001.62
2018-01-17T16:23:37.267Z,1001.59
2018-01-17T16:28:01.192Z,1001.64
2018-01-17T16:29:01.094Z,1001.75
2018-01-17T16:30:01.065Z,1001.71
2018-01-17T16:34:33.196Z,1001.78
2018-01-17T16:37:17.167Z,1001.84
2018-01-17T16:38:15.090Z,1001.84
2018-01-17T16:39:15.006Z,1001.83
2018-01-17T16:40:14.920Z,1001.78
2018-01-17T16:41:14.847Z,1001.88
2018-01-17T16:42:14.774Z,1001.86
2018-01-17T16:43:14.686Z,1001.86
2018-01-17T16:44:14.595Z,1001.90
2018-01-17T16:45:14.553Z,1001.84
2018-01-17T16:46:14.463Z,1001.89
2018-01-17T16:47:14.358Z,1001.90
2018-01-17T16:48:14.265Z,1001.93
2018-01-17T16:49:14.184Z,1001.89
2018-01-17T16:50:14.115Z,1001.94
2018-01-17T16:51:14.025Z,1001.95
2018-01-17T16:52:13.947Z,1002.01
2018-01-17T16:53:13.884Z,1001.95
2018-01-17T16:55:55.667Z,1002.04
2018-01-17T16:56:55.584Z,1002.02
2018-01-17T16:57:57.512Z,1002.01
2018-01-17T16:58:55.445Z,1002.08
2018-01-17T16:59:55.390Z,1002.06
2018-01-17T17:00:55.310Z,1002.13
2018-01-17T17:01:57.173Z,1002.10
2018-01-17T17:06:25.184Z,1002.19
2018-01-17T17:10:49.180Z,1002.27
2018-01-17T17:11:51.265Z,1002.26
2018-01-17T17:12:56.989Z,1002.26
2018-01-17T17:14:02.444Z,1002.27
2018-01-17T17:15:50.380Z,1002.35
2018-01-17T17:15:55.862Z,1002.31
2018-01-17T17:17:51.121Z,1002.21
2018-01-17T17:17:55.323Z,1002.29
2018-01-17T17:18:50.324Z,1002.39
2018-01-17T17:19:50.244Z,1002.29
2018-01-17T17:20:51.286Z,1002.34
2018-01-17T17:21:49.170Z,1002.40
2018-01-17T17:22:52.336Z,1002.50
2018-01-17T17:23:51.617Z,1002.44
2018-01-17T17:24:50.198Z,1002.42
2018-01-17T17:26:54.117Z,1002.44
2018-01-17T17:26:58.647Z,1002.46
2018-01-17T17:27:54.513Z,1002.49
2018-01-17T17:30:36.700Z,1002.48
2018-01-17T17:36:25.049Z,1002.48
2018-01-17T17:38:07.674Z,1002.49
2018-01-17T17:41:17.505Z,1002.53
2018-01-17T17:41:49.619Z,1002.50
2018-01-17T17:42:49.520Z,1002.53
2018-01-17T18:06:36.995Z,1002.52
2018-01-17T18:07:31.789Z,1002.59
2018-01-17T18:08:29.150Z,1002.55
2018-01-17T18:09:29.088Z,1002.62
2018-01-17T18:10:41.814Z,1002.56
2018-01-17T18:11:37.334Z,1002.64
2018-01-17T18:14:19.767Z,1002.71
2018-01-17T18:15:28.418Z,1002.71
2018-01-17T18:16:19.653Z,1002.71
2018-01-17T18:17:19.585Z,1002.76
2018-01-17T18:18:19.919Z,1002.76